Stillwater, Maine
Current Conditions -  °F | °C
As of 3:53 PM on Friday 24 Oct 2014 (Local Time) from KBGR Reporting Station
Drizzle Drizzle  
Wind Chill: 40°   Ceiling: 700
Heat Index: 46°   Visibility: 1.5mi
Dew Point: 44°   Wind: 15mph
Humidity: 93%   Direction: 350°N
Pressure: 29.64"   Gusts: NA
Location:  44.91°N, 68.69°W
Report Text: KBGR 241953Z 35013KT 1 1/2SM -DZ BR BKN007 OVC013 08/07 A2964 RMK AO2 DZB24 CIG 005V009 SLP036 P0000 T00780067
Loading
Personal Weather Stations






























Interactive Weather Map
Tropical Storm Tracking
New forecast layout! Learn more

10-Day Weather Forecast

Advertisements
Track Severe Weather on mobile